createdAt,value
2023-02-08T00:00:04.462Z,75.24
2023-02-08T00:05:09.033Z,74.53
2023-02-08T00:10:11.373Z,74.83
2023-02-08T00:15:13.966Z,75.30
2023-02-08T00:20:15.766Z,75.45
2023-02-08T00:25:17.536Z,75.75
2023-02-08T00:30:19.219Z,75.26
2023-02-08T00:35:22.878Z,75.04
2023-02-08T00:45:44.623Z,76.42
2023-02-08T00:51:07.846Z,75.84
2023-02-08T00:56:14.084Z,76.01
2023-02-08T01:01:15.977Z,76.30
2023-02-08T01:06:18.309Z,75.79
2023-02-08T01:11:25.042Z,75.44
2023-02-08T01:16:30.148Z,75.40
2023-02-08T01:21:34.593Z,75.36
2023-02-08T01:26:36.651Z,75.68
2023-02-08T01:31:42.262Z,75.96
2023-02-08T01:36:44.221Z,75.44
2023-02-08T01:41:46.758Z,75.39
2023-02-08T01:46:51.290Z,75.01
2023-02-08T01:52:00.371Z,75.02
2023-02-08T01:57:02.617Z,74.77
2023-02-08T02:02:07.922Z,74.68
2023-02-08T02:07:10.057Z,73.78
2023-02-08T02:12:13.525Z,73.68
2023-02-08T02:17:18.586Z,73.73
2023-02-08T02:28:30.043Z,73.67
2023-02-08T02:33:42.388Z,73.50
2023-02-08T02:39:21.091Z,73.74
2023-02-08T02:44:31.846Z,73.23
2023-02-08T02:50:04.131Z,73.12
2023-02-08T02:55:13.431Z,72.36
2023-02-08T03:00:21.809Z,72.20
2023-02-08T03:05:23.541Z,72.43
2023-02-08T03:10:34.042Z,72.88
2023-02-08T03:16:10.343Z,72.64
2023-02-08T03:21:33.627Z,72.66
2023-02-08T03:26:59.428Z,72.05
2023-02-08T03:32:08.235Z,72.94
2023-02-08T03:37:24.002Z,72.21
2023-02-08T03:42:28.204Z,72.43
2023-02-08T03:47:35.364Z,72.90
2023-02-08T03:52:37.761Z,73.43
2023-02-08T03:57:56.247Z,73.74
2023-02-08T04:03:05.539Z,73.34
2023-02-08T04:08:07.276Z,73.61
2023-02-08T04:13:08.938Z,73.46
2023-02-08T04:18:10.601Z,74.53
2023-02-08T04:23:12.327Z,73.88
2023-02-08T04:28:14.032Z,73.51
2023-02-08T04:33:15.847Z,72.70
2023-02-08T04:38:17.530Z,72.56
2023-02-08T04:43:19.189Z,72.29
2023-02-08T04:48:21.005Z,73.36
2023-02-08T04:53:23.488Z,74.51
2023-02-08T04:58:25.086Z,74.30
2023-02-08T05:03:26.668Z,74.39
2023-02-08T05:08:28.451Z,72.90
2023-02-08T05:13:30.145Z,72.34
2023-02-08T05:18:31.738Z,72.02
2023-02-08T05:23:33.446Z,71.47
2023-02-08T05:28:35.634Z,71.93
2023-02-08T05:33:37.306Z,73.37
2023-02-08T05:38:38.924Z,73.19
2023-02-08T05:43:41.749Z,72.92
2023-02-08T05:48:43.443Z,72.74
2023-02-08T05:53:45.456Z,71.30
2023-02-08T05:58:47.363Z,71.85
2023-02-08T06:03:49.088Z,71.49
2023-02-08T06:08:50.807Z,71.96
2023-02-08T06:13:52.504Z,71.22
2023-02-08T06:18:54.113Z,70.29
2023-02-08T06:23:55.811Z,69.93
2023-02-08T06:28:59.575Z,69.47
2023-02-08T06:34:01.200Z,68.68
2023-02-08T06:39:02.842Z,67.51
2023-02-08T06:49:23.630Z,67.68
2023-02-08T06:54:25.199Z,66.54
2023-02-08T06:59:26.768Z,66.33
2023-02-08T07:04:28.388Z,66.33
2023-02-08T07:09:30.132Z,65.87
2023-02-08T07:14:33.838Z,65.77
2023-02-08T07:19:35.829Z,66.54
2023-02-08T07:24:39.689Z,65.77
2023-02-08T07:29:41.447Z,65.52
2023-02-08T07:34:43.134Z,66.23
2023-02-08T07:39:45.026Z,66.50
2023-02-08T07:44:46.600Z,66.22
2023-02-08T07:49:48.223Z,66.76
2023-02-08T07:54:49.921Z,67.23
2023-02-08T07:59:54.221Z,67.09
2023-02-08T08:04:55.972Z,67.25
2023-02-08T08:09:57.556Z,66.64
2023-02-08T08:14:59.210Z,66.99
2023-02-08T08:20:00.822Z,66.38
2023-02-08T08:25:02.422Z,66.28
2023-02-08T08:30:06.760Z,66.35
2023-02-08T08:35:09.121Z,66.18
2023-02-08T08:40:11.338Z,66.87
2023-02-08T08:45:14.237Z,66.60
2023-02-08T08:50:15.972Z,66.50
2023-02-08T08:55:17.702Z,66.25
2023-02-08T09:00:19.682Z,65.67
2023-02-08T09:05:21.361Z,66.06
2023-02-08T09:10:22.965Z,65.53
2023-02-08T09:20:45.016Z,65.56
2023-02-08T09:25:48.072Z,65.94
2023-02-08T09:30:51.020Z,66.08
2023-02-08T09:35:52.603Z,63.83
2023-02-08T09:41:02.908Z,64.88
2023-02-08T09:46:26.358Z,63.75
2023-02-08T09:51:37.381Z,64.15
2023-02-08T09:56:43.390Z,63.39
2023-02-08T10:01:46.508Z,62.49
2023-02-08T10:06:50.100Z,61.85
2023-02-08T10:12:13.480Z,60.85
2023-02-08T10:17:50.371Z,60.73
2023-02-08T10:22:57.899Z,60.63
2023-02-08T10:28:27.054Z,61.15
2023-02-08T10:33:41.498Z,61.39
2023-02-08T10:38:46.709Z,60.21
2023-02-08T10:44:00.204Z,59.12
2023-02-08T10:49:25.378Z,57.44
2023-02-08T10:54:27.404Z,57.48
2023-02-08T10:59:51.352Z,56.26
2023-02-08T11:05:12.529Z,56.55
2023-02-08T11:15:52.552Z,54.78
2023-02-08T11:21:02.533Z,55.71
2023-02-08T11:26:39.827Z,54.37
2023-02-08T11:32:00.094Z,54.22
2023-02-08T11:37:13.690Z,54.27
2023-02-08T11:42:25.725Z,54.07
2023-02-08T11:47:34.610Z,50.90
2023-02-08T11:52:42.250Z,49.92
2023-02-08T11:58:20.362Z,49.03
2023-02-08T12:03:31.210Z,48.89
2023-02-08T12:08:35.832Z,48.17
2023-02-08T12:13:44.797Z,48.55
2023-02-08T12:18:56.508Z,47.85
2023-02-08T12:24:19.840Z,47.74
2023-02-08T12:29:48.458Z,48.32
2023-02-08T12:35:39.058Z,49.70
2023-02-08T12:41:10.348Z,49.05
2023-02-08T12:46:21.270Z,49.57
2023-02-08T12:51:37.717Z,50.45
2023-02-08T12:56:53.630Z,50.23
2023-02-08T13:02:12.057Z,50.69
2023-02-08T13:07:19.657Z,51.33
2023-02-08T13:12:25.873Z,50.69
2023-02-08T13:17:34.932Z,50.64
2023-02-08T13:22:40.749Z,49.67
2023-02-08T13:27:42.659Z,49.41
2023-02-08T13:32:46.584Z,49.41
2023-02-08T13:38:17.378Z,49.61
2023-02-08T13:43:35.981Z,48.44
2023-02-08T13:48:45.959Z,50.39
2023-02-08T13:53:47.541Z,49.70
2023-02-08T13:58:49.210Z,49.48
2023-02-08T14:04:12.187Z,49.51
2023-02-08T14:09:28.962Z,49.26
2023-02-08T14:14:39.703Z,48.73
2023-02-08T14:19:44.465Z,48.44
2023-02-08T14:24:49.780Z,48.49
2023-02-08T14:30:07.773Z,48.33
2023-02-08T14:35:15.417Z,48.08
2023-02-08T14:40:17.029Z,47.91
2023-02-08T14:45:33.333Z,48.07
2023-02-08T14:50:40.212Z,48.69
2023-02-08T14:55:49.029Z,48.56
2023-02-08T15:00:54.370Z,49.41
2023-02-08T15:06:18.963Z,48.60
2023-02-08T15:11:32.322Z,48.50
2023-02-08T15:16:40.131Z,48.58
2023-02-08T15:21:41.840Z,48.00
2023-02-08T15:26:49.865Z,48.68
2023-02-08T15:31:52.904Z,48.84
2023-02-08T15:36:56.693Z,49.24
2023-02-08T15:41:59.527Z,49.23
2023-02-08T15:47:04.870Z,49.37
2023-02-08T15:52:08.306Z,49.54
2023-02-08T15:57:31.588Z,48.41
2023-02-08T16:02:35.056Z,48.84
2023-02-08T16:07:39.409Z,48.97
2023-02-08T16:12:41.080Z,49.07
2023-02-08T16:17:46.551Z,49.76
2023-02-08T16:23:23.565Z,49.90
2023-02-08T16:28:27.408Z,49.95
2023-02-08T16:33:30.575Z,49.85
2023-02-08T16:38:34.556Z,50.66
2023-02-08T16:43:37.725Z,50.53
2023-02-08T16:48:42.251Z,50.52
2023-02-08T16:53:46.983Z,50.85
2023-02-08T16:58:48.773Z,51.20
2023-02-08T17:03:52.152Z,51.70
2023-02-08T17:08:53.849Z,52.30
2023-02-08T17:13:55.690Z,53.32
2023-02-08T17:18:58.675Z,53.64
2023-02-08T17:24:01.489Z,54.07
2023-02-08T17:29:03.470Z,54.11
2023-02-08T17:34:05.133Z,54.69
2023-02-08T17:39:06.748Z,54.26
2023-02-08T17:44:08.444Z,54.10
2023-02-08T17:49:10.172Z,54.06
2023-02-08T17:54:12.276Z,54.44
2023-02-08T17:59:14.010Z,54.29
2023-02-08T18:04:15.726Z,54.27
2023-02-08T18:09:17.515Z,53.17
2023-02-08T18:14:19.421Z,53.49
2023-02-08T18:19:21.069Z,53.34
2023-02-08T18:24:22.739Z,53.10
2023-02-08T18:29:25.705Z,53.65
2023-02-08T18:34:27.469Z,52.89
2023-02-08T18:39:29.217Z,52.36
2023-02-08T18:44:31.055Z,52.10
2023-02-08T18:49:32.934Z,53.11
2023-02-08T18:54:34.726Z,53.57
2023-02-08T18:59:37.560Z,54.00
2023-02-08T19:04:39.284Z,54.39
2023-02-08T19:09:41.329Z,54.79
2023-02-08T19:14:43.626Z,54.17
2023-02-08T19:19:46.105Z,53.53
2023-02-08T19:24:47.719Z,52.77
2023-02-08T19:29:51.657Z,52.48
2023-02-08T19:34:53.307Z,52.07
2023-02-08T19:39:55.162Z,52.18
2023-02-08T19:44:56.832Z,51.60
2023-02-08T19:49:58.573Z,51.51
2023-02-08T19:55:00.287Z,51.11
2023-02-08T20:00:04.405Z,50.62
2023-02-08T20:05:13.841Z,50.46
2023-02-08T20:10:15.632Z,50.65
2023-02-08T20:15:17.353Z,50.64
2023-02-08T20:20:20.017Z,50.65
2023-02-08T20:25:22.078Z,50.50
2023-02-08T20:30:25.436Z,50.71
2023-02-08T20:35:27.072Z,50.63
2023-02-08T20:40:32.033Z,50.19
2023-02-08T20:45:33.691Z,49.50
2023-02-08T20:50:35.411Z,49.83
2023-02-08T20:55:43.873Z,49.33
2023-02-08T21:00:46.543Z,49.10
2023-02-08T21:06:00.756Z,49.12
2023-02-08T21:11:02.599Z,49.34
2023-02-08T21:16:18.594Z,49.56
2023-02-08T21:21:20.811Z,49.82
2023-02-08T21:26:23.025Z,49.87
2023-02-08T21:31:25.258Z,49.92
2023-02-08T21:36:27.290Z,49.92
2023-02-08T21:41:32.295Z,50.50
2023-02-08T21:46:52.180Z,50.24
2023-02-08T21:52:12.282Z,50.61
2023-02-08T21:57:23.180Z,51.02
2023-02-08T22:02:28.633Z,51.18
2023-02-08T22:07:41.161Z,51.11
2023-02-08T22:12:47.217Z,51.21
2023-02-08T22:17:53.446Z,51.01
2023-02-08T22:22:55.588Z,50.90
2023-02-08T22:27:57.414Z,51.19
2023-02-08T22:32:59.164Z,51.15
2023-02-08T22:38:00.851Z,51.91
2023-02-08T22:43:02.517Z,52.19
2023-02-08T22:48:06.220Z,51.64
2023-02-08T22:53:08.585Z,51.73
2023-02-08T22:58:10.329Z,52.14
2023-02-08T23:03:12.219Z,52.22
2023-02-08T23:08:16.394Z,52.41
2023-02-08T23:13:18.002Z,52.52
2023-02-08T23:18:19.650Z,52.74
2023-02-08T23:23:21.765Z,53.16
2023-02-08T23:28:23.631Z,53.52
2023-02-08T23:33:25.342Z,53.36
2023-02-08T23:38:27.045Z,53.85
2023-02-08T23:43:28.813Z,53.92
2023-02-08T23:48:30.505Z,54.00
2023-02-08T23:53:33.085Z,54.59
2023-02-08T23:58:35.383Z,54.52
